METAR ET TAF INFORMATION
METAR FOR LFKJ
ADDS - METARS form results

(0245 UTC 28 February 2020)
Data provider http://aviationweather.gov/metar/data/
 
METAR text: LFKJ 280230Z AUTO 27006KT 230V290 CAVOK 13/09 Q1013 NOSIG
Conditions at: LFKJ (AJACCIO/CAMPO OR, FR) observed 0230 UTC 28 February 2020
Temperature: 13.0°C (55°F)
Dewpoint: 9.0°C (48°F) [RH = 77%]
Pressure (altimeter): 29.91 inches Hg (1013.0 mb)
Winds: from the W (270 degrees) at 7 MPH (6 knots; 3.1 m/s)
Visibility: 6 or more miles (10+ km)
Ceiling: ceiling and visibility are OK
Clouds: unknown
Weather: no significant weather observed at this time

METAR text: LFKJ 280200Z AUTO 27007KT 210V310 CAVOK 13/08 Q1013 NOSIG
Conditions at: LFKJ (AJACCIO/CAMPO OR, FR) observed 0200 UTC 28 February 2020
Temperature: 13.0°C (55°F)
Dewpoint: 8.0°C (46°F) [RH = 72%]
Pressure (altimeter): 29.91 inches Hg (1013.0 mb)
Winds: from the W (270 degrees) at 8 MPH (7 knots; 3.6 m/s)
Visibility: 6 or more miles (10+ km)
Ceiling: ceiling and visibility are OK
Clouds: unknown
Weather: no significant weather observed at this time

Forecast for: LFKJ (AJACCIO/CAMPO OR, FR)
Text: TAF LFKJ 280200Z 2803/2903 26008KT 9999 NSC
Forecast period: 0300 to 1800 UTC 28 February 2020
Forecast type: FROM: standard forecast or significant change
Winds: from the W (260 degrees) at 9 MPH (8 knots; 4.1 m/s)
Visibility: 6 or more miles 10+ km)
Ceiling: unknown
Clouds: missing
Weather: no significant weather forecast for this period
Text: BECMG 2818/2821 05005KT
Forecast period: 1800 UTC 28 February 2020 to 0300 UTC 29 February 2020
Forecast type: BECOMING: Conditions expected to become as follows by 2100 UTC 28 February 2020
Winds: from the NE (50 degrees) at 6 MPH (5 knots; 2.6 m/s)
Visibility: 6 or more miles 10+ km)
Ceiling: unknown
Clouds: missing
Weather: no significant weather forecast for this period

 AÉROPORT DE AÉROPORT

 INFORMATIONS DE PISTE
Piste 02 Longueur de la piste 7897 ft Largeur de la piste 148 ft
Élévation de la piste 15 ft Seuil de la piste déplacés 0 ft Runway heading 25
Piste 20 Longueur de la piste 7897 ft Largeur de la piste 148 ft
Élévation de la piste 18 ft Seuil de la piste déplacés 744 ft Runway heading 205

 AÉROPORT FRÉQUENCES
Type AFIS Nom AFIS Féquence 119.825 MHZ
Type APP Nom AJACCIO AP Féquence 121.05 MHZ
Type ATIS Nom AJACCIO AT Féquence 126.925 MHZ
Type GND Nom AJACCIO GN Féquence 121.7 MHZ
Type TWR Nom AJACCIO TW Féquence 118.075 MHZ

 SIDA DE NAVIGATION
Type NDB Nom Ajaccio/Campo Dell Oro Féquence 341 KHZ



Powered by Virtual Airlines Manager [v2.6.2]